Nemacolin, Pennsylvania
Current Conditions -  °F | °C
As of 3:53 AM on Thursday 18 Dec 2014 (Local Time) from KMGW Reporting Station
Overcast Overcast  
Wind Chill: 22°   Ceiling: 2200
Heat Index: 29°   Visibility: 10mi
Dew Point: 17°   Wind: 7mph
Humidity: 61%   Direction: 310°NW
Pressure: 30.18"   Gusts: NA
Location:  39.88°N, 79.92°W
Report Text: KMGW 180853Z AUTO 31006KT 10SM OVC022 M02/M08 A3018 RMK AO2 SLP232 T10171083 50007 TSNO
Loading
Personal Weather Stations






























Interactive Weather Map New forecast layout! Learn more

10-Day Weather Forecast

Advertisements
Track Severe Weather on mobile